Chippewa Falls, WI

9:47 AM CDT on October 01, 2014 (GMT -0500)
Menomonie | Change Station
CLOSE
Current Station
Airport
Location: Menomonie,
Elevation: 896 ft
Nearby Weather Stations

Elev 896 ft 44.89 °N, 91.87 °W | Updated 32 minutes ago

Overcast
Overcast
48 °F
Feels Like 48 °F
N
7
Wind Variable Wind from ESE

Today
High -- | Low -- °F
--% Chance of Precip.
Yesterday
High -- | Low -- °F
Precip. -- in
7:03 AM 6:45 PM
Waxing Crescent, 48% visible
Pressure 29.91 in
Visibility 3.0 miles
Clouds Overcast 700 ft
Dew Point 47 °F
Humidity 97%
Rainfall 0.13 in
Snow Depth Not available.
UV 1 out of 12
Pollen .40 out of 12
Air Quality Not available.
Flu Activity Not available.
METAR KLUM 011415Z AUTO 12006KT 3SM DZ OVC007 09/08 A2991 RMK AO2 P0002 T00860081

More Conditions Fewer Conditions

Pressure 29.91 in
Visibility 3.0 miles
Clouds Overcast 700 ft
Dew Point 47 °F
Humidity 97%
Rainfall 0.13 in
Snow Depth Not available.
UV 1 out of 12
Pollen .40 out of 12
Air Quality Not available.
Flu Activity Not available.
METAR KLUM 011415Z AUTO 12006KT 3SM DZ OVC007 09/08 A2991 RMK AO2 P0002 T00860081

More Conditions Fewer Conditions

10-Day Weather Forecast

Almanac

Astronomy

Oct. 01, 2014 Rise Set
Actual Time 7:03 AM CDT 6:45 PM CDT
Civil Twilight 6:34 AM CDT 7:15 PM CDT
Nautical Twilight 6:00 AM CDT 7:49 PM CDT
Astronomical Twilight 5:25 AM CDT 8:23 PM CDT
Moon 2:15 PM CDT No Moon Set
Length of Visible Light 12h 40m
Length of Day
11h 42m
Tomorrow will be 3m 7s shorter.
Waxing Crescent, 48% of the Moon is Illuminated
Today
Waxing Crescent
Oct 1
First Quarter
Oct 8
Full
Oct 15
Last Quarter
Oct 23
New

Today's Extremes

State Highs State Lows

Community

WunderPhotos

Upload Photos

1,757,960 photos uploaded!

Nearby

Snow Depth

Station Depth Elevation
No new snow has been reported.

Earthquake Activity

City Distance Mag. Time & Date
No recent earthquake activity has been reported nearby.
Minimum magnitude displayed is 2.5.

Coastal Water Temperatures

Place Temperature
No Stations Reporting

Nearby Weather Stations